sensor_id;sensor_type;location;lat;lon;timestamp;P1;durP1;ratioP1;P2;durP2;ratioP2
49946;SDS011;35839;48.662;13.300;2023-03-20T05:39:53;11.30;;;7.03;;
49946;SDS011;35839;48.662;13.300;2023-03-20T05:42:19;10.10;;;8.23;;
49946;SDS011;35839;48.662;13.300;2023-03-20T05:44:44;16.87;;;8.90;;
49946;SDS011;35839;48.662;13.300;2023-03-20T05:47:10;11.53;;;8.90;;
49946;SDS011;35839;48.662;13.300;2023-03-20T05:49:35;12.43;;;8.77;;
49946;SDS011;35839;48.662;13.300;2023-03-20T05:52:00;11.83;;;8.23;;
49946;SDS011;35839;48.662;13.300;2023-03-20T05:54:26;11.60;;;9.37;;
49946;SDS011;35839;48.662;13.300;2023-03-20T05:56:51;16.03;;;9.57;;
49946;SDS011;35839;48.662;13.300;2023-03-20T05:59:17;12.00;;;9.23;;
49946;SDS011;35839;48.662;13.300;2023-03-20T06:01:42;14.87;;;9.30;;
49946;SDS011;35839;48.662;13.300;2023-03-20T06:04:07;12.97;;;9.03;;
49946;SDS011;35839;48.662;13.300;2023-03-20T06:06:33;13.93;;;9.17;;
49946;SDS011;35839;48.662;13.300;2023-03-20T06:09:01;13.93;;;8.25;;
49946;SDS011;35839;48.662;13.300;2023-03-20T06:11:28;13.13;;;9.33;;
49946;SDS011;35839;48.662;13.300;2023-03-20T06:13:53;10.87;;;7.43;;
49946;SDS011;35839;48.662;13.300;2023-03-20T06:16:19;11.80;;;8.30;;
49946;SDS011;35839;48.662;13.300;2023-03-20T06:18:45;8.70;;;7.30;;
49946;SDS011;35839;48.662;13.300;2023-03-20T06:21:10;10.07;;;8.13;;
49946;SDS011;35839;48.662;13.300;2023-03-20T06:23:36;10.80;;;8.73;;
49946;SDS011;35839;48.662;13.300;2023-03-20T06:26:02;12.20;;;8.70;;
49946;SDS011;35839;48.662;13.300;2023-03-20T06:28:28;10.57;;;9.00;;
49946;SDS011;35839;48.662;13.300;2023-03-20T06:30:54;14.20;;;9.00;;
49946;SDS011;35839;48.662;13.300;2023-03-20T06:33:19;13.80;;;8.40;;
49946;SDS011;35839;48.662;13.300;2023-03-20T06:35:45;12.07;;;9.37;;
49946;SDS011;35839;48.662;13.300;2023-03-20T06:38:10;14.43;;;9.43;;
49946;SDS011;35839;48.662;13.300;2023-03-20T06:40:36;14.30;;;10.53;;
49946;SDS011;35839;48.662;13.300;2023-03-20T06:43:01;11.77;;;9.30;;
49946;SDS011;35839;48.662;13.300;2023-03-20T06:45:26;16.60;;;11.00;;
49946;SDS011;35839;48.662;13.300;2023-03-20T06:47:51;13.07;;;10.63;;
49946;SDS011;35839;48.662;13.300;2023-03-20T06:50:17;13.17;;;10.93;;
49946;SDS011;35839;48.662;13.300;2023-03-20T06:52:42;13.17;;;9.73;;
49946;SDS011;35839;48.662;13.300;2023-03-20T06:55:08;13.60;;;9.57;;
49946;SDS011;35839;48.662;13.300;2023-03-20T06:57:34;13.43;;;10.47;;
49946;SDS011;35839;48.662;13.300;2023-03-20T06:59:59;13.13;;;10.23;;
49946;SDS011;35839;48.662;13.300;2023-03-20T07:02:25;28.27;;;16.97;;
49946;SDS011;35839;48.662;13.300;2023-03-20T07:04:50;29.40;;;18.07;;
49946;SDS011;35839;48.662;13.300;2023-03-20T07:07:16;22.17;;;14.80;;
49946;SDS011;35839;48.662;13.300;2023-03-20T07:09:41;19.23;;;13.37;;
49946;SDS011;35839;48.662;13.300;2023-03-20T07:12:13;21.30;;;13.33;;
49946;SDS011;35839;48.662;13.300;2023-03-20T07:14:40;26.33;;;15.43;;
49946;SDS011;35839;48.662;13.300;2023-03-20T07:17:07;21.53;;;15.67;;
49946;SDS011;35839;48.662;13.300;2023-03-20T07:19:36;27.27;;;18.07;;
49946;SDS011;35839;48.662;13.300;2023-03-20T07:22:03;23.65;;;16.98;;
49946;SDS011;35839;48.662;13.300;2023-03-20T07:24:31;23.60;;;16.02;;
49946;SDS011;35839;48.662;13.300;2023-03-20T07:26:57;21.97;;;14.37;;
49946;SDS011;35839;48.662;13.300;2023-03-20T07:29:23;20.20;;;13.10;;
49946;SDS011;35839;48.662;13.300;2023-03-20T07:31:48;19.33;;;12.23;;
49946;SDS011;35839;48.662;13.300;2023-03-20T07:34:14;16.10;;;12.00;;
49946;SDS011;35839;48.662;13.300;2023-03-20T07:36:40;14.63;;;12.03;;
49946;SDS011;35839;48.662;13.300;2023-03-20T07:39:09;15.60;;;11.10;;
49946;SDS011;35839;48.662;13.300;2023-03-20T07:41:35;15.90;;;12.50;;
49946;SDS011;35839;48.662;13.300;2023-03-20T07:44:00;17.30;;;12.73;;
49946;SDS011;35839;48.662;13.300;2023-03-20T07:46:26;14.97;;;11.83;;
49946;SDS011;35839;48.662;13.300;2023-03-20T07:48:51;14.73;;;11.87;;
49946;SDS011;35839;48.662;13.300;2023-03-20T07:51:16;15.60;;;11.70;;
49946;SDS011;35839;48.662;13.300;2023-03-20T07:53:42;19.03;;;12.43;;
49946;SDS011;35839;48.662;13.300;2023-03-20T07:56:07;14.60;;;12.37;;
49946;SDS011;35839;48.662;13.300;2023-03-20T07:58:33;16.17;;;12.27;;
49946;SDS011;35839;48.662;13.300;2023-03-20T08:00:58;15.67;;;12.73;;
49946;SDS011;35839;48.662;13.300;2023-03-20T08:03:24;16.20;;;12.90;;
49946;SDS011;35839;48.662;13.300;2023-03-20T08:05:49;16.33;;;12.00;;
49946;SDS011;35839;48.662;13.300;2023-03-20T08:08:15;14.67;;;11.27;;
49946;SDS011;35839;48.662;13.300;2023-03-20T08:10:40;22.00;;;13.83;;
49946;SDS011;35839;48.662;13.300;2023-03-20T08:13:05;14.33;;;12.60;;
49946;SDS011;35839;48.662;13.300;2023-03-20T08:15:31;16.30;;;12.17;;
49946;SDS011;35839;48.662;13.300;2023-03-20T08:17:56;16.53;;;13.00;;
49946;SDS011;35839;48.662;13.300;2023-03-20T08:20:22;17.20;;;13.13;;
49946;SDS011;35839;48.662;13.300;2023-03-20T08:22:48;14.40;;;12.10;;
49946;SDS011;35839;48.662;13.300;2023-03-20T08:25:13;15.60;;;12.60;;
49946;SDS011;35839;48.662;13.300;2023-03-20T08:27:39;22.17;;;13.03;;
49946;SDS011;35839;48.662;13.300;2023-03-20T08:30:04;17.53;;;13.70;;
49946;SDS011;35839;48.662;13.300;2023-03-20T08:32:30;18.37;;;14.10;;
49946;SDS011;35839;48.662;13.300;2023-03-20T08:34:55;21.17;;;15.83;;
49946;SDS011;35839;48.662;13.300;2023-03-20T08:37:20;19.13;;;15.87;;
49946;SDS011;35839;48.662;13.300;2023-03-20T08:39:46;17.07;;;14.83;;
49946;SDS011;35839;48.662;13.300;2023-03-20T08:42:12;21.03;;;15.40;;
49946;SDS011;35839;48.662;13.300;2023-03-20T08:44:38;18.33;;;16.27;;
49946;SDS011;35839;48.662;13.300;2023-03-20T08:47:03;17.57;;;14.90;;
49946;SDS011;35839;48.662;13.300;2023-03-20T08:49:31;19.40;;;14.87;;
49946;SDS011;35839;48.662;13.300;2023-03-20T08:51:57;16.47;;;13.87;;
49946;SDS011;35839;48.662;13.300;2023-03-20T08:54:23;17.27;;;15.37;;
49946;SDS011;35839;48.662;13.300;2023-03-20T08:56:49;22.43;;;14.83;;
49946;SDS011;35839;48.662;13.300;2023-03-20T08:59:14;18.37;;;15.17;;
49946;SDS011;35839;48.662;13.300;2023-03-20T09:01:40;19.73;;;16.20;;
49946;SDS011;35839;48.662;13.300;2023-03-20T09:04:05;20.27;;;15.33;;
49946;SDS011;35839;48.662;13.300;2023-03-20T09:06:30;23.17;;;19.57;;
49946;SDS011;35839;48.662;13.300;2023-03-20T09:08:56;21.40;;;17.97;;
49946;SDS011;35839;48.662;13.300;2023-03-20T09:11:22;19.27;;;16.23;;
49946;SDS011;35839;48.662;13.300;2023-03-20T09:13:47;19.83;;;17.67;;
49946;SDS011;35839;48.662;13.300;2023-03-20T09:16:13;24.37;;;19.60;;
49946;SDS011;35839;48.662;13.300;2023-03-20T09:18:38;22.73;;;19.80;;
49946;SDS011;35839;48.662;13.300;2023-03-20T09:21:03;22.33;;;18.40;;
49946;SDS011;35839;48.662;13.300;2023-03-20T09:23:29;23.67;;;20.33;;
49946;SDS011;35839;48.662;13.300;2023-03-20T09:25:55;22.83;;;19.10;;
49946;SDS011;35839;48.662;13.300;2023-03-20T09:28:21;24.58;;;19.38;;
49946;SDS011;35839;48.662;13.300;2023-03-20T09:30:47;20.05;;;17.50;;
49946;SDS011;35839;48.662;13.300;2023-03-20T09:33:12;21.92;;;19.60;;
49946;SDS011;35839;48.662;13.300;2023-03-20T09:35:38;23.30;;;18.67;;
49946;SDS011;35839;48.662;13.300;2023-03-20T09:38:04;23.77;;;18.13;;
49946;SDS011;35839;48.662;13.300;2023-03-20T09:41:16;18.90;;;16.88;;
49946;SDS011;35839;48.662;13.300;2023-03-20T09:43:21;21.33;;;17.83;;
49946;SDS011;35839;48.662;13.300;2023-03-20T09:51:55;21.15;;;17.75;;
49946;SDS011;35839;48.662;13.300;2023-03-20T09:54:32;20.30;;;17.50;;
49946;SDS011;35839;48.662;13.300;2023-03-20T09:57:01;20.93;;;16.57;;
49946;SDS011;35839;48.662;13.300;2023-03-20T09:59:28;17.25;;;15.50;;
49946;SDS011;35839;48.662;13.300;2023-03-20T10:01:59;20.13;;;16.55;;
49946;SDS011;35839;48.662;13.300;2023-03-20T10:04:38;20.50;;;17.33;;
49946;SDS011;35839;48.662;13.300;2023-03-20T10:07:05;20.27;;;16.70;;
49946;SDS011;35839;48.662;13.300;2023-03-20T10:09:31;17.75;;;14.02;;
49946;SDS011;35839;48.662;13.300;2023-03-20T10:17:49;22.25;;;15.27;;
49946;SDS011;35839;48.662;13.300;2023-03-20T10:20:34;15.45;;;12.82;;
49946;SDS011;35839;48.662;13.300;2023-03-20T10:23:06;15.38;;;13.27;;
49946;SDS011;35839;48.662;13.300;2023-03-20T10:25:33;18.42;;;12.10;;
49946;SDS011;35839;48.662;13.300;2023-03-20T10:28:05;19.55;;;14.35;;
49946;SDS011;35839;48.662;13.300;2023-03-20T10:36:50;13.82;;;11.35;;
49946;SDS011;35839;48.662;13.300;2023-03-20T10:42:02;19.95;;;11.55;;
49946;SDS011;35839;48.662;13.300;2023-03-20T10:44:38;16.52;;;12.52;;
49946;SDS011;35839;48.662;13.300;2023-03-20T10:47:06;21.10;;;12.83;;
49946;SDS011;35839;48.662;13.300;2023-03-20T10:49:37;16.98;;;13.05;;
49946;SDS011;35839;48.662;13.300;2023-03-20T10:52:09;15.10;;;12.32;;
49946;SDS011;35839;48.662;13.300;2023-03-20T10:54:43;15.93;;;13.27;;
49946;SDS011;35839;48.662;13.300;2023-03-20T10:57:14;13.32;;;11.93;;
49946;SDS011;35839;48.662;13.300;2023-03-20T10:59:47;15.98;;;12.57;;
49946;SDS011;35839;48.662;13.300;2023-03-20T11:02:14;12.25;;;10.10;;
49946;SDS011;35839;48.662;13.300;2023-03-20T11:04:41;11.35;;;10.15;;
49946;SDS011;35839;48.662;13.300;2023-03-20T11:09:35;11.93;;;10.60;;
49946;SDS011;35839;48.662;13.300;2023-03-20T11:12:01;13.25;;;10.93;;
49946;SDS011;35839;48.662;13.300;2023-03-20T11:14:32;13.07;;;11.65;;
49946;SDS011;35839;48.662;13.300;2023-03-20T11:16:59;17.85;;;12.15;;
49946;SDS011;35839;48.662;13.300;2023-03-20T11:19:27;15.27;;;10.98;;
49946;SDS011;35839;48.662;13.300;2023-03-20T11:21:59;16.25;;;10.32;;
49946;SDS011;35839;48.662;13.300;2023-03-20T11:24:28;12.13;;;10.32;;
49946;SDS011;35839;48.662;13.300;2023-03-20T11:27:17;14.07;;;11.07;;
49946;SDS011;35839;48.662;13.300;2023-03-20T11:29:48;10.63;;;9.52;;
49946;SDS011;35839;48.662;13.300;2023-03-20T11:32:29;10.43;;;8.10;;
49946;SDS011;35839;48.662;13.300;2023-03-20T11:38:14;7.88;;;6.60;;
49946;SDS011;35839;48.662;13.300;2023-03-20T11:40:41;6.47;;;5.88;;
49946;SDS011;35839;48.662;13.300;2023-03-20T11:43:11;13.77;;;12.40;;
49946;SDS011;35839;48.662;13.300;2023-03-20T11:45:43;7.80;;;6.30;;
49946;SDS011;35839;48.662;13.300;2023-03-20T11:48:15;7.28;;;5.40;;
49946;SDS011;35839;48.662;13.300;2023-03-20T11:51:00;16.50;;;13.73;;
49946;SDS011;35839;48.662;13.300;2023-03-20T11:53:32;9.15;;;7.63;;
49946;SDS011;35839;48.662;13.300;2023-03-20T11:58:30;24.67;;;18.55;;
49946;SDS011;35839;48.662;13.300;2023-03-20T12:00:56;15.60;;;11.82;;
49946;SDS011;35839;48.662;13.300;2023-03-20T12:06:26;14.23;;;11.93;;
49946;SDS011;35839;48.662;13.300;2023-03-20T12:09:01;16.60;;;13.02;;
49946;SDS011;35839;48.662;13.300;2023-03-20T12:14:25;21.48;;;16.35;;
49946;SDS011;35839;48.662;13.300;2023-03-20T12:16:52;18.42;;;16.30;;
49946;SDS011;35839;48.662;13.300;2023-03-20T12:19:25;27.95;;;22.73;;
49946;SDS011;35839;48.662;13.300;2023-03-20T12:21:58;12.63;;;11.32;;
49946;SDS011;35839;48.662;13.300;2023-03-20T12:24:36;23.05;;;19.23;;
49946;SDS011;35839;48.662;13.300;2023-03-20T12:27:11;9.40;;;8.50;;
49946;SDS011;35839;48.662;13.300;2023-03-20T12:32:25;7.10;;;6.40;;
49946;SDS011;35839;48.662;13.300;2023-03-20T12:34:57;9.20;;;7.30;;
49946;SDS011;35839;48.662;13.300;2023-03-20T12:37:26;8.73;;;6.70;;
49946;SDS011;35839;48.662;13.300;2023-03-20T12:39:55;11.65;;;9.98;;
49946;SDS011;35839;48.662;13.300;2023-03-20T12:45:35;10.88;;;7.15;;
49946;SDS011;35839;48.662;13.300;2023-03-20T12:48:30;9.82;;;7.20;;
49946;SDS011;35839;48.662;13.300;2023-03-20T12:51:21;7.55;;;6.75;;
49946;SDS011;35839;48.662;13.300;2023-03-20T12:54:06;7.15;;;5.85;;
49946;SDS011;35839;48.662;13.300;2023-03-20T12:56:59;5.43;;;4.60;;
49946;SDS011;35839;48.662;13.300;2023-03-20T13:07:41;5.35;;;4.53;;
49946;SDS011;35839;48.662;13.300;2023-03-20T13:10:36;7.82;;;4.60;;
49946;SDS011;35839;48.662;13.300;2023-03-20T13:13:10;5.32;;;4.50;;
49946;SDS011;35839;48.662;13.300;2023-03-20T13:18:31;4.57;;;3.53;;
49946;SDS011;35839;48.662;13.300;2023-03-20T13:21:09;5.32;;;4.00;;
49946;SDS011;35839;48.662;13.300;2023-03-20T13:26:19;3.67;;;3.10;;
49946;SDS011;35839;48.662;13.300;2023-03-20T13:31:54;3.60;;;3.15;;
49946;SDS011;35839;48.662;13.300;2023-03-20T13:40:13;6.25;;;3.50;;
49946;SDS011;35839;48.662;13.300;2023-03-20T13:42:49;5.10;;;3.50;;
49946;SDS011;35839;48.662;13.300;2023-03-20T13:48:26;4.30;;;3.60;;
49946;SDS011;35839;48.662;13.300;2023-03-20T13:51:09;5.68;;;3.92;;
49946;SDS011;35839;48.662;13.300;2023-03-20T13:53:54;4.65;;;3.20;;
49946;SDS011;35839;48.662;13.300;2023-03-20T14:04:33;3.75;;;3.38;;
49946;SDS011;35839;48.662;13.300;2023-03-20T14:06:59;4.38;;;2.80;;
49946;SDS011;35839;48.662;13.300;2023-03-20T14:09:35;4.00;;;3.25;;
49946;SDS011;35839;48.662;13.300;2023-03-20T14:14:48;4.03;;;3.35;;
49946;SDS011;35839;48.662;13.300;2023-03-20T14:17:18;3.85;;;3.17;;
49946;SDS011;35839;48.662;13.300;2023-03-20T14:19:54;4.25;;;3.60;;
49946;SDS011;35839;48.662;13.300;2023-03-20T14:22:22;4.30;;;3.58;;
49946;SDS011;35839;48.662;13.300;2023-03-20T14:24:57;5.00;;;3.70;;
49946;SDS011;35839;48.662;13.300;2023-03-20T14:27:25;4.97;;;4.13;;
49946;SDS011;35839;48.662;13.300;2023-03-20T14:29:53;4.00;;;3.60;;
49946;SDS011;35839;48.662;13.300;2023-03-20T14:34:46;5.65;;;4.10;;
49946;SDS011;35839;48.662;13.300;2023-03-20T14:40:20;4.85;;;3.70;;
49946;SDS011;35839;48.662;13.300;2023-03-20T14:42:54;5.15;;;3.85;;
49946;SDS011;35839;48.662;13.300;2023-03-20T14:53:55;3.83;;;3.35;;
49946;SDS011;35839;48.662;13.300;2023-03-20T14:56:41;5.18;;;4.38;;
49946;SDS011;35839;48.662;13.300;2023-03-20T14:59:06;4.47;;;3.40;;
49946;SDS011;35839;48.662;13.300;2023-03-20T15:07:03;5.07;;;3.65;;
49946;SDS011;35839;48.662;13.300;2023-03-20T15:09:37;4.32;;;3.92;;
49946;SDS011;35839;48.662;13.300;2023-03-20T15:12:08;5.55;;;4.28;;
49946;SDS011;35839;48.662;13.300;2023-03-20T15:14:40;5.15;;;4.38;;
49946;SDS011;35839;48.662;13.300;2023-03-20T15:17:18;4.72;;;4.18;;
49946;SDS011;35839;48.662;13.300;2023-03-20T15:19:48;5.00;;;4.50;;
49946;SDS011;35839;48.662;13.300;2023-03-20T15:22:17;5.38;;;4.07;;
49946;SDS011;35839;48.662;13.300;2023-03-20T15:24:50;6.90;;;5.20;;
49946;SDS011;35839;48.662;13.300;2023-03-20T15:27:17;5.45;;;4.43;;
49946;SDS011;35839;48.662;13.300;2023-03-20T15:29:47;4.80;;;4.05;;
49946;SDS011;35839;48.662;13.300;2023-03-20T15:32:16;4.93;;;4.28;;
49946;SDS011;35839;48.662;13.300;2023-03-20T15:34:41;4.40;;;3.95;;
49946;SDS011;35839;48.662;13.300;2023-03-20T15:37:10;7.28;;;5.18;;
49946;SDS011;35839;48.662;13.300;2023-03-20T15:39:43;5.18;;;4.68;;
49946;SDS011;35839;48.662;13.300;2023-03-20T15:42:15;6.68;;;4.38;;
49946;SDS011;35839;48.662;13.300;2023-03-20T15:44:43;5.43;;;4.40;;
49946;SDS011;35839;48.662;13.300;2023-03-20T15:49:47;5.70;;;4.95;;
49946;SDS011;35839;48.662;13.300;2023-03-20T15:54:48;6.75;;;5.40;;
49946;SDS011;35839;48.662;13.300;2023-03-20T15:57:47;5.47;;;4.57;;
49946;SDS011;35839;48.662;13.300;2023-03-20T16:00:12;6.03;;;5.00;;
49946;SDS011;35839;48.662;13.300;2023-03-20T16:02:42;6.25;;;4.57;;
49946;SDS011;35839;48.662;13.300;2023-03-20T16:05:13;6.97;;;4.97;;
49946;SDS011;35839;48.662;13.300;2023-03-20T16:07:40;4.97;;;4.43;;
49946;SDS011;35839;48.662;13.300;2023-03-20T16:10:26;6.95;;;5.10;;
49946;SDS011;35839;48.662;13.300;2023-03-20T16:12:54;5.93;;;4.28;;
49946;SDS011;35839;48.662;13.300;2023-03-20T16:15:20;9.25;;;4.70;;
49946;SDS011;35839;48.662;13.300;2023-03-20T16:17:49;8.82;;;5.88;;
49946;SDS011;35839;48.662;13.300;2023-03-20T16:20:18;9.68;;;5.78;;
49946;SDS011;35839;48.662;13.300;2023-03-20T16:22:45;6.35;;;4.90;;
49946;SDS011;35839;48.662;13.300;2023-03-20T16:25:13;7.20;;;4.53;;
49946;SDS011;35839;48.662;13.300;2023-03-20T16:27:41;5.03;;;4.38;;
49946;SDS011;35839;48.662;13.300;2023-03-20T16:30:13;3.80;;;3.08;;
49946;SDS011;35839;48.662;13.300;2023-03-20T16:32:46;4.03;;;3.58;;
49946;SDS011;35839;48.662;13.300;2023-03-20T16:35:19;5.95;;;4.25;;
49946;SDS011;35839;48.662;13.300;2023-03-20T16:37:47;3.95;;;3.50;;
49946;SDS011;35839;48.662;13.300;2023-03-20T16:40:20;4.38;;;3.40;;
49946;SDS011;35839;48.662;13.300;2023-03-20T16:42:46;4.38;;;3.72;;
49946;SDS011;35839;48.662;13.300;2023-03-20T16:45:16;4.70;;;3.60;;
49946;SDS011;35839;48.662;13.300;2023-03-20T16:47:47;4.15;;;3.08;;
49946;SDS011;35839;48.662;13.300;2023-03-20T16:52:48;3.17;;;2.85;;
49946;SDS011;35839;48.662;13.300;2023-03-20T16:55:23;51.25;;;34.33;;
49946;SDS011;35839;48.662;13.300;2023-03-20T16:57:53;5.82;;;5.20;;
49946;SDS011;35839;48.662;13.300;2023-03-20T17:00:23;4.18;;;3.65;;
49946;SDS011;35839;48.662;13.300;2023-03-20T17:03:00;3.60;;;3.08;;
49946;SDS011;35839;48.662;13.300;2023-03-20T17:05:34;5.38;;;3.67;;
49946;SDS011;35839;48.662;13.300;2023-03-20T17:08:09;4.43;;;2.90;;
49946;SDS011;35839;48.662;13.300;2023-03-20T17:10:37;5.47;;;3.03;;
49946;SDS011;35839;48.662;13.300;2023-03-20T17:13:03;6.53;;;3.33;;
49946;SDS011;35839;48.662;13.300;2023-03-20T17:15:31;4.75;;;3.17;;
49946;SDS011;35839;48.662;13.300;2023-03-20T17:17:56;4.95;;;4.03;;
49946;SDS011;35839;48.662;13.300;2023-03-20T17:20:25;4.68;;;3.78;;
49946;SDS011;35839;48.662;13.300;2023-03-20T17:22:52;6.07;;;3.40;;
49946;SDS011;35839;48.662;13.300;2023-03-20T17:25:18;3.55;;;3.05;;
49946;SDS011;35839;48.662;13.300;2023-03-20T17:27:44;4.22;;;3.60;;
49946;SDS011;35839;48.662;13.300;2023-03-20T17:32:43;4.32;;;3.88;;
49946;SDS011;35839;48.662;13.300;2023-03-20T17:35:08;6.78;;;3.65;;
49946;SDS011;35839;48.662;13.300;2023-03-20T17:37:33;9.55;;;4.63;;
49946;SDS011;35839;48.662;13.300;2023-03-20T17:39:59;5.57;;;4.35;;
49946;SDS011;35839;48.662;13.300;2023-03-20T17:42:25;5.57;;;4.60;;
49946;SDS011;35839;48.662;13.300;2023-03-20T17:44:55;4.07;;;3.60;;
49946;SDS011;35839;48.662;13.300;2023-03-20T17:47:22;4.05;;;3.65;;
49946;SDS011;35839;48.662;13.300;2023-03-20T17:49:49;7.32;;;4.93;;
49946;SDS011;35839;48.662;13.300;2023-03-20T17:52:23;5.13;;;4.50;;
49946;SDS011;35839;48.662;13.300;2023-03-20T17:54:50;5.50;;;4.05;;
49946;SDS011;35839;48.662;13.300;2023-03-20T17:59:47;4.50;;;3.92;;
49946;SDS011;35839;48.662;13.300;2023-03-20T18:02:14;5.47;;;3.58;;
49946;SDS011;35839;48.662;13.300;2023-03-20T18:04:40;5.60;;;4.70;;
49946;SDS011;35839;48.662;13.300;2023-03-20T18:07:07;3.80;;;3.40;;
49946;SDS011;35839;48.662;13.300;2023-03-20T18:09:33;6.55;;;4.57;;
49946;SDS011;35839;48.662;13.300;2023-03-20T18:11:58;5.28;;;3.90;;
49946;SDS011;35839;48.662;13.300;2023-03-20T18:14:23;5.22;;;4.43;;
49946;SDS011;35839;48.662;13.300;2023-03-20T18:16:49;6.53;;;4.75;;
49946;SDS011;35839;48.662;13.300;2023-03-20T18:19:20;8.77;;;6.10;;
49946;SDS011;35839;48.662;13.300;2023-03-20T18:21:48;10.20;;;6.22;;
49946;SDS011;35839;48.662;13.300;2023-03-20T18:24:13;15.55;;;4.53;;
49946;SDS011;35839;48.662;13.300;2023-03-20T18:26:38;5.32;;;4.28;;
49946;SDS011;35839;48.662;13.300;2023-03-20T18:29:04;5.97;;;4.70;;
49946;SDS011;35839;48.662;13.300;2023-03-20T18:31:29;7.45;;;5.20;;
49946;SDS011;35839;48.662;13.300;2023-03-20T18:33:54;6.05;;;4.82;;
49946;SDS011;35839;48.662;13.300;2023-03-20T18:36:21;8.60;;;4.70;;
49946;SDS011;35839;48.662;13.300;2023-03-20T18:38:47;6.18;;;4.80;;
49946;SDS011;35839;48.662;13.300;2023-03-20T18:41:13;6.07;;;5.07;;
49946;SDS011;35839;48.662;13.300;2023-03-20T18:43:39;6.03;;;4.45;;
49946;SDS011;35839;48.662;13.300;2023-03-20T18:46:05;4.80;;;3.67;;
49946;SDS011;35839;48.662;13.300;2023-03-20T18:48:31;3.72;;;3.33;;
49946;SDS011;35839;48.662;13.300;2023-03-20T18:50:57;4.47;;;3.47;;
49946;SDS011;35839;48.662;13.300;2023-03-20T18:53:27;3.85;;;3.42;;
49946;SDS011;35839;48.662;13.300;2023-03-20T18:55:53;3.92;;;3.40;;
49946;SDS011;35839;48.662;13.300;2023-03-20T18:58:29;6.57;;;4.53;;
49946;SDS011;35839;48.662;13.300;2023-03-20T19:00:55;12.52;;;7.32;;
49946;SDS011;35839;48.662;13.300;2023-03-20T19:05:53;10.43;;;6.30;;
49946;SDS011;35839;48.662;13.300;2023-03-20T19:08:20;9.52;;;6.38;;
49946;SDS011;35839;48.662;13.300;2023-03-20T19:10:46;9.20;;;6.22;;
49946;SDS011;35839;48.662;13.300;2023-03-20T19:13:13;13.63;;;8.35;;
49946;SDS011;35839;48.662;13.300;2023-03-20T19:15:40;14.23;;;9.25;;
49946;SDS011;35839;48.662;13.300;2023-03-20T19:18:07;12.88;;;9.02;;
49946;SDS011;35839;48.662;13.300;2023-03-20T19:20:42;12.82;;;8.05;;
49946;SDS011;35839;48.662;13.300;2023-03-20T19:23:12;14.25;;;11.55;;
49946;SDS011;35839;48.662;13.300;2023-03-20T19:25:39;13.93;;;10.13;;
49946;SDS011;35839;48.662;13.300;2023-03-20T19:28:09;14.05;;;10.25;;
49946;SDS011;35839;48.662;13.300;2023-03-20T19:30:43;16.13;;;10.05;;
49946;SDS011;35839;48.662;13.300;2023-03-20T19:33:08;16.15;;;11.75;;
49946;SDS011;35839;48.662;13.300;2023-03-20T19:35:34;21.20;;;12.82;;
49946;SDS011;35839;48.662;13.300;2023-03-20T19:37:59;16.48;;;11.18;;
49946;SDS011;35839;48.662;13.300;2023-03-20T19:42:54;13.65;;;9.27;;
49946;SDS011;35839;48.662;13.300;2023-03-20T19:45:21;13.63;;;8.40;;
49946;SDS011;35839;48.662;13.300;2023-03-20T19:47:47;10.98;;;8.45;;
49946;SDS011;35839;48.662;13.300;2023-03-20T19:50:24;11.43;;;7.57;;
49946;SDS011;35839;48.662;13.300;2023-03-20T19:52:52;11.57;;;7.63;;
49946;SDS011;35839;48.662;13.300;2023-03-20T19:55:20;11.38;;;7.78;;
49946;SDS011;35839;48.662;13.300;2023-03-20T19:57:45;10.77;;;7.95;;
49946;SDS011;35839;48.662;13.300;2023-03-20T20:00:11;9.60;;;6.63;;
49946;SDS011;35839;48.662;13.300;2023-03-20T20:02:38;7.90;;;6.10;;
49946;SDS011;35839;48.662;13.300;2023-03-20T20:05:04;12.60;;;6.30;;
49946;SDS011;35839;48.662;13.300;2023-03-20T20:07:30;13.00;;;7.05;;
49946;SDS011;35839;48.662;13.300;2023-03-20T20:09:55;13.60;;;7.65;;
49946;SDS011;35839;48.662;13.300;2023-03-20T20:12:20;10.88;;;7.72;;
49946;SDS011;35839;48.662;13.300;2023-03-20T20:14:46;17.10;;;8.82;;
49946;SDS011;35839;48.662;13.300;2023-03-20T20:17:11;7.45;;;6.13;;
49946;SDS011;35839;48.662;13.300;2023-03-20T20:19:36;8.30;;;6.38;;
49946;SDS011;35839;48.662;13.300;2023-03-20T20:22:02;9.75;;;7.10;;
49946;SDS011;35839;48.662;13.300;2023-03-20T20:24:27;18.70;;;11.00;;
49946;SDS011;35839;48.662;13.300;2023-03-20T20:26:53;13.70;;;9.02;;
49946;SDS011;35839;48.662;13.300;2023-03-20T20:29:19;11.13;;;8.63;;
49946;SDS011;35839;48.662;13.300;2023-03-20T20:31:45;14.90;;;8.13;;
49946;SDS011;35839;48.662;13.300;2023-03-20T20:34:10;11.07;;;8.18;;
49946;SDS011;35839;48.662;13.300;2023-03-20T20:36:35;9.82;;;7.95;;
49946;SDS011;35839;48.662;13.300;2023-03-20T20:39:01;14.45;;;8.15;;
49946;SDS011;35839;48.662;13.300;2023-03-20T20:41:26;10.40;;;8.25;;
49946;SDS011;35839;48.662;13.300;2023-03-20T20:43:53;9.80;;;7.00;;
49946;SDS011;35839;48.662;13.300;2023-03-20T20:46:19;11.55;;;9.05;;
49946;SDS011;35839;48.662;13.300;2023-03-20T20:48:45;11.75;;;8.90;;
49946;SDS011;35839;48.662;13.300;2023-03-20T20:51:10;11.95;;;9.20;;
49946;SDS011;35839;48.662;13.300;2023-03-20T20:53:35;10.90;;;8.93;;
49946;SDS011;35839;48.662;13.300;2023-03-20T20:56:01;9.75;;;7.05;;
49946;SDS011;35839;48.662;13.300;2023-03-20T20:58:26;14.25;;;7.68;;
49946;SDS011;35839;48.662;13.300;2023-03-20T21:00:51;11.60;;;8.05;;
49946;SDS011;35839;48.662;13.300;2023-03-20T21:03:17;13.77;;;8.57;;
49946;SDS011;35839;48.662;13.300;2023-03-20T21:05:43;13.83;;;8.57;;
49946;SDS011;35839;48.662;13.300;2023-03-20T21:08:08;13.55;;;8.68;;
49946;SDS011;35839;48.662;13.300;2023-03-20T21:10:35;10.53;;;7.77;;
49946;SDS011;35839;48.662;13.300;2023-03-20T21:13:01;12.77;;;8.30;;
49946;SDS011;35839;48.662;13.300;2023-03-20T21:15:26;11.90;;;7.50;;
49946;SDS011;35839;48.662;13.300;2023-03-20T21:17:52;11.40;;;8.10;;
49946;SDS011;35839;48.662;13.300;2023-03-20T21:20:17;14.70;;;8.80;;
49946;SDS011;35839;48.662;13.300;2023-03-20T21:22:42;9.87;;;7.43;;
49946;SDS011;35839;48.662;13.300;2023-03-20T21:25:08;9.43;;;7.20;;
49946;SDS011;35839;48.662;13.300;2023-03-20T21:27:33;10.03;;;7.10;;
49946;SDS011;35839;48.662;13.300;2023-03-20T21:29:59;11.40;;;6.73;;
49946;SDS011;35839;48.662;13.300;2023-03-20T21:32:25;12.43;;;6.93;;
49946;SDS011;35839;48.662;13.300;2023-03-20T21:34:55;9.97;;;6.57;;
49946;SDS011;35839;48.662;13.300;2023-03-20T21:37:20;9.17;;;6.70;;
49946;SDS011;35839;48.662;13.300;2023-03-20T21:39:48;11.77;;;9.97;;
49946;SDS011;35839;48.662;13.300;2023-03-20T21:42:15;11.57;;;7.93;;
49946;SDS011;35839;48.662;13.300;2023-03-20T21:44:40;10.70;;;6.83;;
49946;SDS011;35839;48.662;13.300;2023-03-20T21:47:06;9.40;;;6.80;;
49946;SDS011;35839;48.662;13.300;2023-03-20T21:49:32;9.00;;;7.07;;
49946;SDS011;35839;48.662;13.300;2023-03-20T21:51:57;8.47;;;6.43;;
49946;SDS011;35839;48.662;13.300;2023-03-20T21:54:25;9.43;;;6.50;;
49946;SDS011;35839;48.662;13.300;2023-03-20T21:56:51;9.07;;;6.90;;
49946;SDS011;35839;48.662;13.300;2023-03-20T21:59:17;8.37;;;6.87;;
49946;SDS011;35839;48.662;13.300;2023-03-20T22:01:43;9.80;;;6.97;;
49946;SDS011;35839;48.662;13.300;2023-03-20T22:04:08;12.00;;;7.60;;